Time;durP1;ratioP1;P1;durP2;ratioP2;P2;SDS_P1;SDS_P2;PMS_P1;PMS_P2;Temp;Humidity;BMP_temperature;BMP_pressure;BME280_temperature;BME280_humidity;BME280_pressure;Samples;Min_cycle;Max_cycle;Signal;HPM_P1;HPM_P2
2024/02/29 00:00:09;;;;;;;9.30;7.40;;;;;;;;;;525664;28;972;-72
2024/02/29 00:00:25;;;;;;;8.68;7.15;;;;;;;;;;523272;28;1225;-72
2024/02/29 00:00:40;;;;;;;9.55;7.40;;;;;;;;;;523183;28;2116;-73
2024/02/29 00:00:55;;;;;;;10.10;7.43;;;;;;;;;;523756;28;1155;-73
2024/02/29 00:01:11;;;;;;;9.88;7.60;;;;;;;;;;525803;28;889;-72
2024/02/29 00:01:26;;;;;;;10.17;7.93;;;;;;;;;;523862;28;1089;-73
2024/02/29 00:01:43;;;;;;;10.50;7.93;;;;;;;;;;522097;28;1168;-73
2024/02/29 00:01:58;;;;;;;10.13;7.70;;;;;;;;;;519353;28;1258;-72
2024/02/29 00:02:14;;;;;;;9.48;7.18;;;;;;;;;;518130;28;2100;-72
2024/02/29 00:02:29;;;;;;;9.53;7.10;;;;;;;;;;519746;28;1120;-72
2024/02/29 00:02:44;;;;;;;10.17;7.37;;;;;;;;;;520927;28;1229;-73
2024/02/29 00:02:59;;;;;;;9.73;7.40;;;;;;;;;;519352;28;1392;-72
2024/02/29 00:03:15;;;;;;;9.67;7.50;;;;;;;;;;519182;28;1143;-73
2024/02/29 00:03:30;;;;;;;9.77;7.73;;;;;;;;;;519890;28;1210;-73
2024/02/29 00:03:45;;;;;;;8.88;7.35;;;;;;;;;;518319;28;1543;-71
2024/02/29 00:04:01;;;;;;;8.47;6.90;;;;;;;;;;521403;28;1199;-72
2024/02/29 00:04:16;;;;;;;8.17;6.80;;;;;;;;;;521496;28;1720;-72
2024/02/29 00:04:33;;;;;;;8.23;6.82;;;;;;;;;;521697;28;1004;-72
2024/02/29 00:04:48;;;;;;;8.90;6.90;;;;;;;;;;523332;28;1044;-72
2024/02/29 00:05:05;;;;;;;9.27;7.07;;;;;;;;;;523826;28;1267;-72
2024/02/29 00:05:20;;;;;;;9.73;7.40;;;;;;;;;;526124;28;1074;-72
2024/02/29 00:05:36;;;;;;;9.40;7.57;;;;;;;;;;528124;27;1981;-72
2024/02/29 00:05:53;;;;;;;9.35;7.50;;;;;;;;;;528166;27;1082;-72
2024/02/29 00:06:09;;;;;;;9.63;7.45;;;;;;;;;;525393;28;1389;-72
2024/02/29 00:06:24;;;;;;;10.40;7.40;;;;;;;;;;524868;28;975;-72
2024/02/29 00:06:40;;;;;;;9.88;7.30;;;;;;;;;;523353;28;853;-72
2024/02/29 00:06:55;;;;;;;10.02;7.40;;;;;;;;;;521914;28;1299;-72
2024/02/29 00:07:11;;;;;;;9.83;7.43;;;;;;;;;;523163;28;2084;-72
2024/02/29 00:07:26;;;;;;;9.75;7.30;;;;;;;;;;523266;28;1047;-72
2024/02/29 00:07:42;;;;;;;10.03;7.27;;;;;;;;;;523119;28;994;-72
2024/02/29 00:07:58;;;;;;;9.43;7.28;;;;;;;;;;521511;28;1194;-72
2024/02/29 00:08:13;;;;;;;8.70;7.30;;;;;;;;;;522827;28;1911;-72
2024/02/29 00:08:28;;;;;;;8.77;7.15;;;;;;;;;;521104;28;1254;-72
2024/02/29 00:08:44;;;;;;;8.80;6.80;;;;;;;;;;522059;28;878;-72
2024/02/29 00:08:59;;;;;;;9.23;6.97;;;;;;;;;;521682;28;2054;-72
2024/02/29 00:09:14;;;;;;;9.97;7.30;;;;;;;;;;523534;28;979;-72
2024/02/29 00:09:30;;;;;;;8.67;6.73;;;;;;;;;;523356;28;1085;-72
2024/02/29 00:09:45;;;;;;;8.60;6.47;;;;;;;;;;523211;28;1040;-72
2024/02/29 00:10:01;;;;;;;9.20;6.90;;;;;;;;;;521314;28;829;-72
2024/02/29 00:10:16;;;;;;;8.63;6.60;;;;;;;;;;521525;28;1361;-72
2024/02/29 00:10:31;;;;;;;7.75;6.10;;;;;;;;;;520014;28;2519;-72
2024/02/29 00:10:47;;;;;;;7.53;6.33;;;;;;;;;;520975;28;1243;-72
2024/02/29 00:11:03;;;;;;;9.60;6.97;;;;;;;;;;521541;28;728;-72
2024/02/29 00:11:19;;;;;;;10.55;7.25;;;;;;;;;;521681;28;881;-72
2024/02/29 00:11:35;;;;;;;10.00;7.13;;;;;;;;;;519320;28;1333;-72
2024/02/29 00:11:51;;;;;;;10.27;7.18;;;;;;;;;;519770;28;1173;-72
2024/02/29 00:12:06;;;;;;;10.13;7.20;;;;;;;;;;521183;28;2104;-72
2024/02/29 00:12:21;;;;;;;9.27;7.00;;;;;;;;;;521559;28;1190;-72
2024/02/29 00:12:38;;;;;;;8.73;6.90;;;;;;;;;;519155;28;1327;-72
2024/02/29 00:12:53;;;;;;;8.95;7.10;;;;;;;;;;519131;28;1326;-72
2024/02/29 00:13:09;;;;;;;9.60;7.20;;;;;;;;;;516842;28;1126;-71
2024/02/29 00:13:24;;;;;;;9.45;6.95;;;;;;;;;;517855;28;1092;-71
2024/02/29 00:13:39;;;;;;;8.80;6.77;;;;;;;;;;519466;28;1152;-71
2024/02/29 00:13:55;;;;;;;8.90;6.83;;;;;;;;;;519148;28;1885;-71
2024/02/29 00:14:11;;;;;;;8.10;6.57;;;;;;;;;;519473;28;772;-71
2024/02/29 00:14:26;;;;;;;8.73;6.70;;;;;;;;;;519960;28;1047;-71
2024/02/29 00:14:42;;;;;;;10.30;7.20;;;;;;;;;;519595;28;1195;-71
2024/02/29 00:14:57;;;;;;;10.50;7.32;;;;;;;;;;519547;28;1227;-71
2024/02/29 00:15:13;;;;;;;9.67;7.33;;;;;;;;;;519371;28;1164;-71
2024/02/29 00:15:29;;;;;;;9.07;7.25;;;;;;;;;;519463;28;1820;-71
2024/02/29 00:15:44;;;;;;;9.63;7.43;;;;;;;;;;522162;28;1723;-71
2024/02/29 00:16:00;;;;;;;11.23;7.87;;;;;;;;;;523554;28;818;-71
2024/02/29 00:16:15;;;;;;;11.80;8.02;;;;;;;;;;522220;28;1088;-71
2024/02/29 00:16:31;;;;;;;11.13;8.10;;;;;;;;;;522479;28;1091;-71
2024/02/29 00:16:46;;;;;;;10.10;8.00;;;;;;;;;;521703;28;1180;-71
2024/02/29 00:17:02;;;;;;;9.97;7.60;;;;;;;;;;521797;28;1164;-71
2024/02/29 00:17:17;;;;;;;10.38;7.78;;;;;;;;;;523455;28;2028;-71
2024/02/29 00:17:32;;;;;;;10.83;8.17;;;;;;;;;;522895;28;1383;-71
2024/02/29 00:17:48;;;;;;;10.48;8.13;;;;;;;;;;523885;28;1327;-71
2024/02/29 00:18:03;;;;;;;10.03;7.40;;;;;;;;;;523960;28;1577;-71
2024/02/29 00:18:18;;;;;;;9.30;7.10;;;;;;;;;;523558;28;1013;-71
2024/02/29 00:18:34;;;;;;;8.60;7.03;;;;;;;;;;523657;28;1164;-71
2024/02/29 00:18:49;;;;;;;9.17;7.40;;;;;;;;;;524704;28;948;-71
2024/02/29 00:19:05;;;;;;;10.10;7.50;;;;;;;;;;527570;28;2053;-71
2024/02/29 00:19:20;;;;;;;10.95;7.70;;;;;;;;;;527677;28;1050;-71
2024/02/29 00:19:36;;;;;;;10.98;7.88;;;;;;;;;;527703;28;893;-71
2024/02/29 00:19:51;;;;;;;9.87;7.53;;;;;;;;;;525362;28;1283;-71
2024/02/29 00:20:08;;;;;;;10.02;7.65;;;;;;;;;;525463;28;1330;-71
2024/02/29 00:20:24;;;;;;;10.77;7.72;;;;;;;;;;523480;28;1325;-71
2024/02/29 00:20:39;;;;;;;10.97;8.20;;;;;;;;;;523382;28;1988;-71
2024/02/29 00:20:54;;;;;;;11.10;8.40;;;;;;;;;;523493;28;1077;-71
2024/02/29 00:21:10;;;;;;;13.38;8.30;;;;;;;;;;523516;28;976;-71
2024/02/29 00:21:26;;;;;;;13.67;8.50;;;;;;;;;;520779;28;1174;-71
2024/02/29 00:21:41;;;;;;;12.30;8.60;;;;;;;;;;519649;28;918;-72
2024/02/29 00:21:56;;;;;;;12.80;8.93;;;;;;;;;;522677;28;1068;-71
2024/02/29 00:22:11;;;;;;;12.70;8.77;;;;;;;;;;521752;28;1278;-71
2024/02/29 00:22:27;;;;;;;12.45;8.38;;;;;;;;;;523410;28;2043;-71
2024/02/29 00:22:42;;;;;;;12.93;8.80;;;;;;;;;;521424;28;1349;-71
2024/02/29 00:22:57;;;;;;;12.67;8.60;;;;;;;;;;521481;28;1144;-71
2024/02/29 00:23:13;;;;;;;11.20;8.35;;;;;;;;;;521180;28;1257;-71
2024/02/29 00:23:31;;;;;;;10.87;8.33;;;;;;;;;;523512;28;1019;-71
2024/02/29 00:23:46;;;;;;;9.93;7.63;;;;;;;;;;523387;28;1132;-71
2024/02/29 00:24:02;;;;;;;9.93;7.72;;;;;;;;;;521744;28;1827;-71
2024/02/29 00:24:17;;;;;;;10.40;7.87;;;;;;;;;;523585;28;879;-71
2024/02/29 00:24:32;;;;;;;9.80;7.55;;;;;;;;;;524011;28;1315;-71
2024/02/29 00:24:48;;;;;;;10.20;7.63;;;;;;;;;;524499;28;1437;-71
2024/02/29 00:25:03;;;;;;;10.57;8.00;;;;;;;;;;525738;28;762;-71
2024/02/29 00:25:19;;;;;;;10.05;8.20;;;;;;;;;;525431;28;1175;-71
2024/02/29 00:25:35;;;;;;;9.70;8.00;;;;;;;;;;520879;28;1831;-71
2024/02/29 00:25:50;;;;;;;10.00;7.88;;;;;;;;;;522094;28;941;-71
2024/02/29 00:26:06;;;;;;;9.60;7.30;;;;;;;;;;521415;28;735;-71
2024/02/29 00:26:23;;;;;;;9.57;7.27;;;;;;;;;;521419;28;1229;-71
2024/02/29 00:26:38;;;;;;;9.70;7.60;;;;;;;;;;523442;28;819;-71
2024/02/29 00:26:53;;;;;;;9.10;7.10;;;;;;;;;;523722;28;1019;-71
2024/02/29 00:27:09;;;;;;;9.07;7.37;;;;;;;;;;523656;28;1188;-71
2024/02/29 00:27:25;;;;;;;9.70;7.63;;;;;;;;;;521816;28;1983;-71
2024/02/29 00:27:40;;;;;;;10.43;7.65;;;;;;;;;;523454;28;811;-71
2024/02/29 00:27:56;;;;;;;10.00;7.68;;;;;;;;;;523386;28;1064;-71
2024/02/29 00:28:12;;;;;;;10.00;7.50;;;;;;;;;;522928;28;1951;-71
2024/02/29 00:28:27;;;;;;;9.77;7.17;;;;;;;;;;524538;28;1078;-71
2024/02/29 00:28:42;;;;;;;9.40;7.15;;;;;;;;;;525501;28;842;-71
2024/02/29 00:28:57;;;;;;;10.13;7.77;;;;;;;;;;525134;28;1638;-71
2024/02/29 00:29:13;;;;;;;11.47;8.30;;;;;;;;;;523882;28;1953;-71
2024/02/29 00:29:28;;;;;;;11.48;8.50;;;;;;;;;;522983;28;1426;-71
2024/02/29 00:29:44;;;;;;;11.80;8.63;;;;;;;;;;521079;28;1186;-71
2024/02/29 00:29:59;;;;;;;12.73;8.90;;;;;;;;;;519202;28;1343;-71
2024/02/29 00:30:16;;;;;;;12.50;8.90;;;;;;;;;;521188;28;1743;-71
2024/02/29 00:30:32;;;;;;;11.48;8.75;;;;;;;;;;520743;28;1325;-71
2024/02/29 00:30:47;;;;;;;10.93;8.93;;;;;;;;;;518194;28;1333;-71
2024/02/29 00:31:03;;;;;;;12.60;9.05;;;;;;;;;;521455;28;2126;-71
2024/02/29 00:31:18;;;;;;;13.57;8.85;;;;;;;;;;522144;28;924;-71
2024/02/29 00:31:34;;;;;;;11.63;8.50;;;;;;;;;;521314;28;1260;-71
2024/02/29 00:31:49;;;;;;;10.88;8.30;;;;;;;;;;521318;28;1168;-71
2024/02/29 00:32:05;;;;;;;11.50;8.33;;;;;;;;;;519799;28;1148;-71
2024/02/29 00:32:21;;;;;;;12.15;8.70;;;;;;;;;;521447;28;1122;-71
2024/02/29 00:32:37;;;;;;;12.37;9.10;;;;;;;;;;521726;28;2037;-71
2024/02/29 00:32:55;;;;;;;12.35;9.18;;;;;;;;;;523477;28;1121;-71
2024/02/29 00:33:10;;;;;;;12.82;9.00;;;;;;;;;;521029;28;1367;-71
2024/02/29 00:33:25;;;;;;;12.60;8.97;;;;;;;;;;522263;28;980;-71
2024/02/29 00:33:41;;;;;;;12.60;8.80;;;;;;;;;;523634;28;897;-71
2024/02/29 00:33:56;;;;;;;13.80;8.63;;;;;;;;;;523345;28;1170;-72
2024/02/29 00:34:12;;;;;;;14.60;8.77;;;;;;;;;;523590;28;957;-71
2024/02/29 00:34:30;;;;;;;12.20;8.50;;;;;;;;;;524393;28;1055;-71
2024/02/29 00:34:46;;;;;;;11.18;8.48;;;;;;;;;;523097;28;1404;-71
2024/02/29 00:35:01;;;;;;;11.13;8.55;;;;;;;;;;524180;28;1215;-71
2024/02/29 00:35:16;;;;;;;12.13;8.70;;;;;;;;;;523649;28;1250;-71
2024/02/29 00:35:32;;;;;;;12.27;8.45;;;;;;;;;;523238;28;1120;-71
2024/02/29 00:35:47;;;;;;;10.67;8.10;;;;;;;;;;523469;28;1103;-71
2024/02/29 00:36:03;;;;;;;10.50;8.17;;;;;;;;;;523214;28;1984;-71
2024/02/29 00:36:19;;;;;;;11.05;8.48;;;;;;;;;;523358;28;885;-71
2024/02/29 00:36:34;;;;;;;12.05;8.80;;;;;;;;;;521207;28;1299;-71
2024/02/29 00:36:49;;;;;;;13.37;9.00;;;;;;;;;;521042;28;1191;-71
2024/02/29 00:37:04;;;;;;;13.93;9.27;;;;;;;;;;521821;28;1140;-71
2024/02/29 00:37:20;;;;;;;12.70;8.90;;;;;;;;;;523455;28;1031;-71
2024/02/29 00:37:35;;;;;;;11.33;8.67;;;;;;;;;;519024;28;1893;-71
2024/02/29 00:37:50;;;;;;;11.23;8.90;;;;;;;;;;519641;28;969;-71
2024/02/29 00:38:06;;;;;;;11.77;8.75;;;;;;;;;;519997;28;1788;-71
2024/02/29 00:38:21;;;;;;;11.77;8.30;;;;;;;;;;521140;28;1815;-71
2024/02/29 00:38:38;;;;;;;11.60;8.40;;;;;;;;;;521498;28;1708;-71
2024/02/29 00:38:55;;;;;;;12.10;8.82;;;;;;;;;;523898;28;967;-71
2024/02/29 00:39:10;;;;;;;11.57;8.70;;;;;;;;;;525653;28;1939;-71
2024/02/29 00:39:26;;;;;;;11.10;8.65;;;;;;;;;;527062;28;1999;-71
2024/02/29 00:39:41;;;;;;;10.90;8.37;;;;;;;;;;530089;28;884;-71
2024/02/29 00:39:58;;;;;;;10.90;8.13;;;;;;;;;;525498;28;1576;-71
2024/02/29 00:40:14;;;;;;;10.90;8.15;;;;;;;;;;525741;28;850;-71
2024/02/29 00:40:30;;;;;;;11.70;8.25;;;;;;;;;;525312;28;1015;-71
2024/02/29 00:40:45;;;;;;;11.00;7.63;;;;;;;;;;525419;28;1189;-71
2024/02/29 00:41:00;;;;;;;10.00;7.60;;;;;;;;;;523413;28;1965;-71
2024/02/29 00:41:16;;;;;;;10.97;8.17;;;;;;;;;;523672;28;798;-71
2024/02/29 00:41:31;;;;;;;11.13;8.25;;;;;;;;;;522878;28;1825;-71
2024/02/29 00:41:47;;;;;;;10.75;8.07;;;;;;;;;;523913;28;1972;-71
2024/02/29 00:42:02;;;;;;;11.20;8.27;;;;;;;;;;523244;28;2038;-71
2024/02/29 00:42:18;;;;;;;11.00;8.32;;;;;;;;;;523565;28;1277;-71
2024/02/29 00:42:34;;;;;;;10.87;8.10;;;;;;;;;;523462;28;1043;-71
2024/02/29 00:42:50;;;;;;;11.60;8.23;;;;;;;;;;523521;28;2131;-71
2024/02/29 00:43:05;;;;;;;11.57;8.60;;;;;;;;;;525095;28;893;-71
2024/02/29 00:43:20;;;;;;;12.03;8.80;;;;;;;;;;525729;28;1089;-71
2024/02/29 00:43:35;;;;;;;11.05;8.38;;;;;;;;;;525860;28;1298;-72
2024/02/29 00:43:51;;;;;;;10.50;8.20;;;;;;;;;;525966;28;1050;-71
2024/02/29 00:44:06;;;;;;;11.50;8.37;;;;;;;;;;525235;28;1265;-71
2024/02/29 00:44:21;;;;;;;11.07;8.32;;;;;;;;;;523360;28;1984;-71
2024/02/29 00:44:36;;;;;;;11.80;8.70;;;;;;;;;;521385;28;1270;-71
2024/02/29 00:44:52;;;;;;;11.73;8.57;;;;;;;;;;523267;28;1352;-71
2024/02/29 00:45:08;;;;;;;10.20;7.80;;;;;;;;;;523455;28;822;-71
2024/02/29 00:45:23;;;;;;;10.18;7.82;;;;;;;;;;523857;28;956;-71
2024/02/29 00:45:38;;;;;;;10.48;7.88;;;;;;;;;;525714;28;790;-71
2024/02/29 00:45:54;;;;;;;11.10;8.13;;;;;;;;;;523927;28;1220;-71
2024/02/29 00:46:09;;;;;;;10.30;8.23;;;;;;;;;;522996;28;1850;-71
2024/02/29 00:46:25;;;;;;;10.68;8.25;;;;;;;;;;523306;28;1022;-71
2024/02/29 00:46:40;;;;;;;11.30;8.27;;;;;;;;;;522673;28;952;-71
2024/02/29 00:46:55;;;;;;;10.25;7.75;;;;;;;;;;523297;28;1182;-71
2024/02/29 00:47:12;;;;;;;10.60;8.03;;;;;;;;;;523527;28;931;-71
2024/02/29 00:47:27;;;;;;;11.75;8.35;;;;;;;;;;523359;28;1053;-71
2024/02/29 00:47:42;;;;;;;11.67;8.33;;;;;;;;;;523695;28;2090;-71
2024/02/29 00:47:57;;;;;;;11.35;8.40;;;;;;;;;;527639;28;1210;-71
2024/02/29 00:48:13;;;;;;;11.27;8.40;;;;;;;;;;524933;28;1909;-71
2024/02/29 00:48:28;;;;;;;11.57;8.53;;;;;;;;;;524479;28;1011;-71
2024/02/29 00:48:43;;;;;;;11.40;8.35;;;;;;;;;;521112;28;1260;-71
2024/02/29 00:48:59;;;;;;;10.60;8.13;;;;;;;;;;523629;28;880;-71
2024/02/29 00:49:14;;;;;;;10.70;8.40;;;;;;;;;;523630;28;869;-71
2024/02/29 00:49:30;;;;;;;11.20;8.60;;;;;;;;;;521176;28;2495;-71
2024/02/29 00:49:46;;;;;;;11.68;8.93;;;;;;;;;;521341;28;1049;-71
2024/02/29 00:50:01;;;;;;;11.37;8.60;;;;;;;;;;521773;28;895;-71
2024/02/29 00:50:16;;;;;;;11.57;8.40;;;;;;;;;;523556;28;798;-71
2024/02/29 00:50:34;;;;;;;12.00;8.57;;;;;;;;;;525424;28;1047;-71
2024/02/29 00:50:50;;;;;;;11.55;8.40;;;;;;;;;;526508;28;1058;-71
2024/02/29 00:51:05;;;;;;;11.50;8.20;;;;;;;;;;523422;28;2134;-71
2024/02/29 00:51:20;;;;;;;11.80;8.48;;;;;;;;;;524176;28;1179;-71
2024/02/29 00:51:36;;;;;;;11.33;8.63;;;;;;;;;;523617;28;798;-71
2024/02/29 00:51:51;;;;;;;11.38;8.88;;;;;;;;;;524462;28;1094;-71
2024/02/29 00:52:06;;;;;;;11.87;8.90;;;;;;;;;;525758;28;703;-71
2024/02/29 00:52:22;;;;;;;11.50;8.57;;;;;;;;;;525438;28;1261;-71
2024/02/29 00:52:38;;;;;;;12.13;8.48;;;;;;;;;;525567;28;909;-71
2024/02/29 00:52:53;;;;;;;12.18;8.57;;;;;;;;;;525561;28;2093;-71
2024/02/29 00:53:09;;;;;;;11.37;8.40;;;;;;;;;;524670;28;1123;-71
2024/02/29 00:53:24;;;;;;;10.93;7.85;;;;;;;;;;521339;28;1195;-71
2024/02/29 00:53:39;;;;;;;10.87;8.03;;;;;;;;;;521550;28;779;-71
2024/02/29 00:53:54;;;;;;;11.67;8.70;;;;;;;;;;522444;28;1310;-71
2024/02/29 00:54:10;;;;;;;11.07;8.65;;;;;;;;;;523291;28;1630;-71
2024/02/29 00:54:25;;;;;;;11.13;8.50;;;;;;;;;;522744;28;1754;-71
2024/02/29 00:54:40;;;;;;;11.93;8.60;;;;;;;;;;523028;28;1577;-71
2024/02/29 00:54:56;;;;;;;11.67;8.50;;;;;;;;;;522974;28;1581;-71
2024/02/29 00:55:12;;;;;;;11.38;8.30;;;;;;;;;;525155;28;1517;-71
2024/02/29 00:55:27;;;;;;;11.13;8.32;;;;;;;;;;526320;28;1497;-71
2024/02/29 00:55:43;;;;;;;11.53;8.57;;;;;;;;;;526555;28;1547;-71
2024/02/29 00:55:58;;;;;;;11.48;8.50;;;;;;;;;;524197;28;1709;-71
2024/02/29 00:56:14;;;;;;;10.97;8.33;;;;;;;;;;526320;28;1591;-71
2024/02/29 00:56:29;;;;;;;10.73;8.13;;;;;;;;;;527533;28;1246;-71
2024/02/29 00:56:44;;;;;;;9.80;7.83;;;;;;;;;;525822;28;1624;-71
2024/02/29 00:57:00;;;;;;;10.63;7.80;;;;;;;;;;525348;28;1508;-71
2024/02/29 00:57:15;;;;;;;11.37;8.30;;;;;;;;;;525513;28;1610;-71
2024/02/29 00:57:30;;;;;;;11.23;8.67;;;;;;;;;;523854;28;1323;-71
2024/02/29 00:57:49;;;;;;;12.73;9.03;;;;;;;;;;523128;28;1698;-72
2024/02/29 00:58:04;;;;;;;13.00;8.73;;;;;;;;;;523752;28;1484;-71
2024/02/29 00:58:20;;;;;;;10.77;8.25;;;;;;;;;;523166;28;1477;-71
2024/02/29 00:58:35;;;;;;;10.97;8.40;;;;;;;;;;524215;28;1235;-71
2024/02/29 00:58:51;;;;;;;12.13;8.33;;;;;;;;;;524223;28;1442;-71
2024/02/29 00:59:06;;;;;;;11.45;8.25;;;;;;;;;;522974;28;1639;-71
2024/02/29 00:59:21;;;;;;;11.25;8.25;;;;;;;;;;523616;28;1643;-71
2024/02/29 00:59:37;;;;;;;11.43;8.07;;;;;;;;;;522955;28;2035;-71
2024/02/29 00:59:52;;;;;;;11.97;8.07;;;;;;;;;;522853;28;1526;-71
2024/02/29 01:00:09;;;;;;;11.52;8.00;;;;;;;;;;524154;28;1438;-71
2024/02/29 01:00:24;;;;;;;10.45;8.20;;;;;;;;;;522591;28;1541;-71
2024/02/29 01:00:39;;;;;;;12.07;8.48;;;;;;;;;;523008;28;1577;-71
2024/02/29 01:00:55;;;;;;;12.37;8.37;;;;;;;;;;521003;28;1586;-71
2024/02/29 01:01:10;;;;;;;10.60;8.03;;;;;;;;;;521888;28;1760;-71
2024/02/29 01:01:25;;;;;;;10.77;8.02;;;;;;;;;;521177;28;1621;-71
2024/02/29 01:01:41;;;;;;;11.67;8.40;;;;;;;;;;520743;28;1499;-71
2024/02/29 01:01:56;;;;;;;11.50;8.50;;;;;;;;;;520673;28;1670;-71
2024/02/29 01:02:11;;;;;;;11.65;8.80;;;;;;;;;;521034;28;1512;-71
2024/02/29 01:02:27;;;;;;;11.60;8.70;;;;;;;;;;523161;28;1193;-71
2024/02/29 01:02:42;;;;;;;11.37;8.73;;;;;;;;;;522706;28;1494;-71
2024/02/29 01:02:57;;;;;;;12.18;8.65;;;;;;;;;;523228;28;1693;-71
2024/02/29 01:03:13;;;;;;;11.97;8.57;;;;;;;;;;523596;28;1580;-71
2024/02/29 01:03:28;;;;;;;10.63;8.43;;;;;;;;;;522126;28;1288;-71
2024/02/29 01:03:43;;;;;;;10.27;8.40;;;;;;;;;;524509;28;1603;-72
2024/02/29 01:03:59;;;;;;;10.73;8.47;;;;;;;;;;521945;28;1542;-71
2024/02/29 01:04:14;;;;;;;10.90;8.17;;;;;;;;;;519492;28;1691;-71
2024/02/29 01:04:29;;;;;;;11.25;8.23;;;;;;;;;;521070;28;1685;-71
2024/02/29 01:04:45;;;;;;;12.43;8.53;;;;;;;;;;520653;28;1626;-71
2024/02/29 01:05:00;;;;;;;11.97;8.40;;;;;;;;;;521162;28;1503;-71
2024/02/29 01:05:16;;;;;;;10.57;8.53;;;;;;;;;;523105;28;1652;-71
2024/02/29 01:05:31;;;;;;;10.37;8.37;;;;;;;;;;525149;28;1298;-71
2024/02/29 01:05:46;;;;;;;11.23;8.32;;;;;;;;;;525084;28;1729;-71
2024/02/29 01:06:04;;;;;;;13.10;8.77;;;;;;;;;;527154;28;1579;-71
2024/02/29 01:06:19;;;;;;;12.80;8.85;;;;;;;;;;526305;28;1362;-71
2024/02/29 01:06:34;;;;;;;11.57;8.77;;;;;;;;;;524884;28;1311;-71
2024/02/29 01:06:50;;;;;;;11.47;8.90;;;;;;;;;;523100;28;1526;-71
2024/02/29 01:07:05;;;;;;;11.83;9.00;;;;;;;;;;522781;28;1593;-71
2024/02/29 01:07:20;;;;;;;11.40;8.85;;;;;;;;;;520611;28;2134;-71
2024/02/29 01:07:36;;;;;;;10.97;8.60;;;;;;;;;;521100;28;2186;-71
2024/02/29 01:07:51;;;;;;;11.07;8.57;;;;;;;;;;522001;28;1884;-71
2024/02/29 01:08:07;;;;;;;11.13;8.50;;;;;;;;;;519025;28;1330;-71
2024/02/29 01:08:22;;;;;;;12.32;8.40;;;;;;;;;;519064;28;1971;-71
2024/02/29 01:08:38;;;;;;;12.27;8.30;;;;;;;;;;519995;28;1495;-71
2024/02/29 01:08:53;;;;;;;11.95;8.45;;;;;;;;;;521167;28;1509;-71
2024/02/29 01:09:08;;;;;;;12.27;8.77;;;;;;;;;;521045;28;1514;-71
2024/02/29 01:09:27;;;;;;;10.77;8.33;;;;;;;;;;518824;28;1462;-71
2024/02/29 01:09:42;;;;;;;10.55;8.00;;;;;;;;;;518332;28;2011;-72
2024/02/29 01:09:58;;;;;;;11.67;8.30;;;;;;;;;;519479;28;1229;-71
2024/02/29 01:10:13;;;;;;;11.57;8.52;;;;;;;;;;520632;28;1561;-71
2024/02/29 01:10:28;;;;;;;10.67;8.30;;;;;;;;;;518916;28;1233;-70
2024/02/29 01:10:44;;;;;;;10.43;7.97;;;;;;;;;;519765;28;1586;-71
2024/02/29 01:10:59;;;;;;;11.40;8.30;;;;;;;;;;521805;28;1515;-71
2024/02/29 01:11:15;;;;;;;11.80;8.90;;;;;;;;;;520776;28;1715;-71
2024/02/29 01:11:33;;;;;;;11.55;8.75;;;;;;;;;;522085;28;1185;-71
2024/02/29 01:11:48;;;;;;;11.90;8.65;;;;;;;;;;519888;28;1582;-71
2024/02/29 01:12:04;;;;;;;11.50;8.87;;;;;;;;;;520591;28;1550;-71
2024/02/29 01:12:19;;;;;;;12.25;9.00;;;;;;;;;;522140;28;1602;-71
2024/02/29 01:12:39;;;;;;;12.63;8.87;;;;;;;;;;522807;28;1273;-71
2024/02/29 01:12:56;;;;;;;11.88;8.57;;;;;;;;;;522620;28;1921;-71
2024/02/29 01:13:11;;;;;;;12.68;8.90;;;;;;;;;;521514;28;1855;-72
2024/02/29 01:13:27;;;;;;;11.77;8.73;;;;;;;;;;520924;28;1909;-71
2024/02/29 01:13:42;;;;;;;10.53;8.37;;;;;;;;;;520776;28;1538;-71
2024/02/29 01:13:58;;;;;;;10.40;7.80;;;;;;;;;;523038;28;1467;-71
2024/02/29 01:14:13;;;;;;;12.23;8.10;;;;;;;;;;523298;28;1556;-71
2024/02/29 01:14:28;;;;;;;12.23;8.30;;;;;;;;;;523023;28;1317;-71
2024/02/29 01:14:44;;;;;;;11.80;8.20;;;;;;;;;;522607;28;1593;-71
2024/02/29 01:14:59;;;;;;;13.07;8.60;;;;;;;;;;523046;28;1522;-71
2024/02/29 01:15:14;;;;;;;12.03;8.47;;;;;;;;;;522981;28;1581;-71
2024/02/29 01:15:30;;;;;;;11.43;8.55;;;;;;;;;;525146;28;1343;-71
2024/02/29 01:15:46;;;;;;;12.73;9.10;;;;;;;;;;524942;28;1588;-71
2024/02/29 01:16:01;;;;;;;13.57;9.48;;;;;;;;;;525737;28;1540;-71
2024/02/29 01:16:16;;;;;;;12.60;9.27;;;;;;;;;;524939;28;1706;-71
2024/02/29 01:16:31;;;;;;;12.37;9.13;;;;;;;;;;525512;28;1238;-71
2024/02/29 01:16:48;;;;;;;12.13;9.00;;;;;;;;;;523271;28;1391;-71
2024/02/29 01:17:03;;;;;;;11.25;8.68;;;;;;;;;;520977;28;1518;-71
2024/02/29 01:17:19;;;;;;;10.98;8.50;;;;;;;;;;521483;28;1574;-71
2024/02/29 01:17:34;;;;;;;11.10;8.40;;;;;;;;;;520897;28;1280;-71
2024/02/29 01:17:50;;;;;;;11.50;8.57;;;;;;;;;;521428;28;1688;-71
2024/02/29 01:18:06;;;;;;;12.48;8.93;;;;;;;;;;520446;28;1916;-71
2024/02/29 01:18:21;;;;;;;14.07;9.30;;;;;;;;;;521436;28;1571;-71
2024/02/29 01:18:36;;;;;;;13.20;9.13;;;;;;;;;;519746;28;1464;-71
2024/02/29 01:18:52;;;;;;;12.43;9.40;;;;;;;;;;520914;28;1570;-71
2024/02/29 01:19:07;;;;;;;12.07;9.10;;;;;;;;;;521717;28;1523;-71
2024/02/29 01:19:22;;;;;;;11.20;8.57;;;;;;;;;;523253;28;1597;-71
2024/02/29 01:19:38;;;;;;;11.57;9.02;;;;;;;;;;521193;28;1746;-71
2024/02/29 01:19:53;;;;;;;11.88;9.07;;;;;;;;;;518838;28;1914;-71
2024/02/29 01:20:09;;;;;;;12.67;8.97;;;;;;;;;;519044;28;1510;-71
2024/02/29 01:20:24;;;;;;;13.07;9.27;;;;;;;;;;518804;28;1530;-71
2024/02/29 01:20:40;;;;;;;14.07;9.20;;;;;;;;;;520177;28;1510;-71
2024/02/29 01:20:55;;;;;;;15.47;9.37;;;;;;;;;;521136;28;1588;-71
2024/02/29 01:21:10;;;;;;;14.10;9.27;;;;;;;;;;521367;28;1593;-71
2024/02/29 01:21:26;;;;;;;12.65;9.02;;;;;;;;;;517087;28;1575;-71
2024/02/29 01:21:41;;;;;;;12.37;9.17;;;;;;;;;;519472;28;1998;-71
2024/02/29 01:21:57;;;;;;;11.50;9.10;;;;;;;;;;521413;28;1370;-71
2024/02/29 01:22:12;;;;;;;11.30;9.05;;;;;;;;;;520714;28;1592;-71
2024/02/29 01:22:28;;;;;;;12.20;8.97;;;;;;;;;;521270;28;1228;-72
2024/02/29 01:22:43;;;;;;;11.93;8.60;;;;;;;;;;521098;28;1538;-71
2024/02/29 01:22:58;;;;;;;11.80;8.65;;;;;;;;;;523609;28;1509;-71
2024/02/29 01:23:14;;;;;;;13.20;9.53;;;;;;;;;;522731;28;1924;-71
2024/02/29 01:23:29;;;;;;;13.47;9.30;;;;;;;;;;526598;28;1254;-71
2024/02/29 01:23:44;;;;;;;12.07;8.45;;;;;;;;;;522982;28;1463;-71
2024/02/29 01:24:00;;;;;;;11.07;8.17;;;;;;;;;;523493;28;1220;-71
2024/02/29 01:24:15;;;;;;;11.80;8.70;;;;;;;;;;523166;28;1509;-71
2024/02/29 01:24:30;;;;;;;11.63;8.97;;;;;;;;;;521942;28;1354;-71
2024/02/29 01:24:46;;;;;;;11.90;8.77;;;;;;;;;;522695;28;1471;-71
2024/02/29 01:25:02;;;;;;;11.40;8.50;;;;;;;;;;519230;28;2011;-71
2024/02/29 01:25:17;;;;;;;10.65;8.45;;;;;;;;;;520260;28;1307;-71
2024/02/29 01:25:33;;;;;;;12.20;8.77;;;;;;;;;;521270;28;1059;-71
2024/02/29 01:25:48;;;;;;;13.43;9.13;;;;;;;;;;521043;28;1279;-71
2024/02/29 01:26:06;;;;;;;11.93;8.90;;;;;;;;;;520485;28;1276;-71
2024/02/29 01:26:22;;;;;;;11.18;8.68;;;;;;;;;;521675;28;1283;-71
2024/02/29 01:26:37;;;;;;;11.50;8.88;;;;;;;;;;522905;28;1916;-71
2024/02/29 01:26:52;;;;;;;11.70;8.90;;;;;;;;;;521886;28;1340;-71
2024/02/29 01:27:08;;;;;;;11.90;8.80;;;;;;;;;;523148;28;1220;-71
2024/02/29 01:27:23;;;;;;;11.30;8.45;;;;;;;;;;523100;28;1280;-71
2024/02/29 01:27:38;;;;;;;10.60;8.50;;;;;;;;;;524242;28;1188;-71
2024/02/29 01:27:54;;;;;;;10.90;8.50;;;;;;;;;;522551;28;1208;-71
2024/02/29 01:28:09;;;;;;;11.75;8.68;;;;;;;;;;520806;28;2640;-71
2024/02/29 01:28:24;;;;;;;11.80;8.80;;;;;;;;;;521244;28;1902;-71
2024/02/29 01:28:40;;;;;;;11.60;8.67;;;;;;;;;;522600;28;1110;-71
2024/02/29 01:28:56;;;;;;;13.05;8.88;;;;;;;;;;523803;28;1398;-71
2024/02/29 01:29:11;;;;;;;13.25;9.30;;;;;;;;;;523977;28;1361;-71
2024/02/29 01:29:26;;;;;;;12.23;9.40;;;;;;;;;;521256;28;1054;-71
2024/02/29 01:29:42;;;;;;;11.63;9.23;;;;;;;;;;522763;28;1247;-71
2024/02/29 01:29:57;;;;;;;12.10;9.18;;;;;;;;;;523209;28;1852;-71
2024/02/29 01:30:13;;;;;;;12.57;9.37;;;;;;;;;;523543;28;1144;-71
2024/02/29 01:30:28;;;;;;;12.05;9.20;;;;;;;;;;523472;28;1283;-71
2024/02/29 01:30:43;;;;;;;11.50;9.10;;;;;;;;;;522946;28;1180;-71
2024/02/29 01:31:00;;;;;;;11.70;9.10;;;;;;;;;;523645;28;1200;-71
2024/02/29 01:31:15;;;;;;;11.65;9.00;;;;;;;;;;521117;28;1271;-71
2024/02/29 01:31:31;;;;;;;11.97;9.20;;;;;;;;;;521827;28;1008;-71
2024/02/29 01:31:46;;;;;;;11.95;9.07;;;;;;;;;;521560;28;1978;-71
2024/02/29 01:32:01;;;;;;;12.13;9.10;;;;;;;;;;521905;28;838;-71
2024/02/29 01:32:17;;;;;;;12.13;9.17;;;;;;;;;;522084;28;917;-71
2024/02/29 01:32:32;;;;;;;11.90;9.20;;;;;;;;;;523232;28;1249;-71
2024/02/29 01:32:47;;;;;;;11.57;9.17;;;;;;;;;;523452;28;1048;-71
2024/02/29 01:33:03;;;;;;;11.27;8.90;;;;;;;;;;523418;28;747;-71
2024/02/29 01:33:18;;;;;;;12.73;9.43;;;;;;;;;;523644;28;1918;-71
2024/02/29 01:33:33;;;;;;;14.60;9.60;;;;;;;;;;521984;28;1287;-71
2024/02/29 01:33:48;;;;;;;13.70;9.17;;;;;;;;;;521680;28;1282;-71
2024/02/29 01:34:04;;;;;;;11.68;9.20;;;;;;;;;;521802;28;1015;-71
2024/02/29 01:34:20;;;;;;;12.30;8.90;;;;;;;;;;522035;28;819;-71
2024/02/29 01:34:35;;;;;;;13.05;8.68;;;;;;;;;;521613;28;1194;-71
2024/02/29 01:34:50;;;;;;;12.97;9.43;;;;;;;;;;519514;28;1156;-71
2024/02/29 01:35:07;;;;;;;12.77;9.60;;;;;;;;;;519551;28;2078;-71